sensor_id;sensor_type;location;lat;lon;timestamp;P1;durP1;ratioP1;P2;durP2;ratioP2
5559;SDS011;2803;47.916;8.074;2022-08-06T00:02:03;9.13;;;6.07;;
5559;SDS011;2803;47.916;8.074;2022-08-06T00:04:30;6.87;;;5.40;;
5559;SDS011;2803;47.916;8.074;2022-08-06T00:06:57;8.60;;;6.40;;
5559;SDS011;2803;47.916;8.074;2022-08-06T00:09:23;7.30;;;5.10;;
5559;SDS011;2803;47.916;8.074;2022-08-06T00:11:53;8.80;;;5.47;;
5559;SDS011;2803;47.916;8.074;2022-08-06T00:14:20;9.20;;;6.27;;
5559;SDS011;2803;47.916;8.074;2022-08-06T00:16:46;8.37;;;5.80;;
5559;SDS011;2803;47.916;8.074;2022-08-06T00:19:13;8.63;;;6.10;;
5559;SDS011;2803;47.916;8.074;2022-08-06T00:21:39;9.37;;;5.80;;
5559;SDS011;2803;47.916;8.074;2022-08-06T00:24:07;8.47;;;6.87;;
5559;SDS011;2803;47.916;8.074;2022-08-06T00:26:33;10.90;;;6.73;;
5559;SDS011;2803;47.916;8.074;2022-08-06T00:29:04;8.93;;;6.70;;
5559;SDS011;2803;47.916;8.074;2022-08-06T00:31:30;10.67;;;6.40;;
5559;SDS011;2803;47.916;8.074;2022-08-06T00:33:57;12.23;;;6.53;;
5559;SDS011;2803;47.916;8.074;2022-08-06T00:36:26;10.80;;;7.40;;
5559;SDS011;2803;47.916;8.074;2022-08-06T00:38:54;9.47;;;6.47;;
5559;SDS011;2803;47.916;8.074;2022-08-06T00:41:21;10.03;;;7.83;;
5559;SDS011;2803;47.916;8.074;2022-08-06T00:43:48;12.63;;;6.90;;
5559;SDS011;2803;47.916;8.074;2022-08-06T00:46:16;15.10;;;6.00;;
5559;SDS011;2803;47.916;8.074;2022-08-06T00:48:43;8.00;;;6.27;;
5559;SDS011;2803;47.916;8.074;2022-08-06T00:51:10;6.90;;;5.90;;
5559;SDS011;2803;47.916;8.074;2022-08-06T00:53:36;6.90;;;5.83;;
5559;SDS011;2803;47.916;8.074;2022-08-06T00:56:03;12.27;;;6.13;;
5559;SDS011;2803;47.916;8.074;2022-08-06T00:58:30;9.10;;;6.70;;
5559;SDS011;2803;47.916;8.074;2022-08-06T01:00:57;7.27;;;5.60;;
5559;SDS011;2803;47.916;8.074;2022-08-06T01:03:25;9.20;;;6.63;;
5559;SDS011;2803;47.916;8.074;2022-08-06T01:05:51;7.17;;;5.57;;
5559;SDS011;2803;47.916;8.074;2022-08-06T01:08:18;7.07;;;5.67;;
5559;SDS011;2803;47.916;8.074;2022-08-06T01:10:46;8.57;;;5.90;;
5559;SDS011;2803;47.916;8.074;2022-08-06T01:13:13;10.97;;;5.90;;
5559;SDS011;2803;47.916;8.074;2022-08-06T01:15:40;8.03;;;5.73;;
5559;SDS011;2803;47.916;8.074;2022-08-06T01:18:11;6.93;;;4.97;;
5559;SDS011;2803;47.916;8.074;2022-08-06T01:20:50;9.80;;;6.50;;
5559;SDS011;2803;47.916;8.074;2022-08-06T01:23:33;10.13;;;5.17;;
5559;SDS011;2803;47.916;8.074;2022-08-06T01:26:14;8.27;;;6.40;;
5559;SDS011;2803;47.916;8.074;2022-08-06T01:28:54;10.40;;;6.43;;
5559;SDS011;2803;47.916;8.074;2022-08-06T01:31:26;15.23;;;8.93;;
5559;SDS011;2803;47.916;8.074;2022-08-06T01:33:58;12.63;;;8.23;;
5559;SDS011;2803;47.916;8.074;2022-08-06T01:36:29;16.77;;;8.47;;
5559;SDS011;2803;47.916;8.074;2022-08-06T01:39:02;11.70;;;7.60;;
5559;SDS011;2803;47.916;8.074;2022-08-06T01:41:32;11.97;;;7.97;;
5559;SDS011;2803;47.916;8.074;2022-08-06T01:44:05;13.57;;;8.80;;
5559;SDS011;2803;47.916;8.074;2022-08-06T01:46:35;19.37;;;8.43;;
5559;SDS011;2803;47.916;8.074;2022-08-06T01:49:04;10.87;;;7.77;;
5559;SDS011;2803;47.916;8.074;2022-08-06T01:51:32;12.53;;;8.90;;
5559;SDS011;2803;47.916;8.074;2022-08-06T01:54:02;14.40;;;7.60;;
5559;SDS011;2803;47.916;8.074;2022-08-06T01:56:30;13.70;;;8.20;;
5559;SDS011;2803;47.916;8.074;2022-08-06T01:59:01;11.87;;;6.60;;
5559;SDS011;2803;47.916;8.074;2022-08-06T02:01:32;11.50;;;7.57;;
5559;SDS011;2803;47.916;8.074;2022-08-06T02:04:01;13.27;;;7.50;;
5559;SDS011;2803;47.916;8.074;2022-08-06T02:06:30;13.97;;;7.83;;
5559;SDS011;2803;47.916;8.074;2022-08-06T02:09:00;13.03;;;7.53;;
5559;SDS011;2803;47.916;8.074;2022-08-06T02:11:30;13.43;;;7.97;;
5559;SDS011;2803;47.916;8.074;2022-08-06T02:13:59;13.33;;;8.67;;
5559;SDS011;2803;47.916;8.074;2022-08-06T02:16:27;12.50;;;7.50;;
5559;SDS011;2803;47.916;8.074;2022-08-06T02:18:57;17.87;;;7.40;;
5559;SDS011;2803;47.916;8.074;2022-08-06T02:21:26;10.63;;;6.50;;
5559;SDS011;2803;47.916;8.074;2022-08-06T02:23:53;7.75;;;5.30;;
5559;SDS011;2803;47.916;8.074;2022-08-06T02:26:22;16.87;;;6.17;;
5559;SDS011;2803;47.916;8.074;2022-08-06T02:28:51;9.97;;;5.40;;
5559;SDS011;2803;47.916;8.074;2022-08-06T02:31:21;9.50;;;5.63;;
5559;SDS011;2803;47.916;8.074;2022-08-06T02:33:48;14.40;;;5.63;;
5559;SDS011;2803;47.916;8.074;2022-08-06T02:36:17;8.80;;;5.50;;
5559;SDS011;2803;47.916;8.074;2022-08-06T02:38:46;9.00;;;5.17;;
5559;SDS011;2803;47.916;8.074;2022-08-06T02:41:21;8.33;;;5.60;;
5559;SDS011;2803;47.916;8.074;2022-08-06T02:43:54;7.40;;;4.25;;
5559;SDS011;2803;47.916;8.074;2022-08-06T02:46:25;9.20;;;4.50;;
5559;SDS011;2803;47.916;8.074;2022-08-06T02:48:56;6.65;;;4.00;;
5559;SDS011;2803;47.916;8.074;2022-08-06T02:51:30;8.73;;;3.50;;
5559;SDS011;2803;47.916;8.074;2022-08-06T02:54:02;7.23;;;4.03;;
5559;SDS011;2803;47.916;8.074;2022-08-06T02:56:32;6.17;;;3.90;;
5559;SDS011;2803;47.916;8.074;2022-08-06T02:59:03;9.53;;;3.67;;
5559;SDS011;2803;47.916;8.074;2022-08-06T03:01:31;5.93;;;3.70;;
5559;SDS011;2803;47.916;8.074;2022-08-06T03:04:05;9.13;;;4.03;;
5559;SDS011;2803;47.916;8.074;2022-08-06T03:06:37;8.67;;;3.57;;
5559;SDS011;2803;47.916;8.074;2022-08-06T03:09:11;6.23;;;3.67;;
5559;SDS011;2803;47.916;8.074;2022-08-06T03:11:53;9.90;;;3.40;;
5559;SDS011;2803;47.916;8.074;2022-08-06T03:14:23;4.57;;;2.80;;
5559;SDS011;2803;47.916;8.074;2022-08-06T03:16:50;7.53;;;3.33;;
5559;SDS011;2803;47.916;8.074;2022-08-06T03:21:48;12.77;;;3.30;;
5559;SDS011;2803;47.916;8.074;2022-08-06T03:24:17;5.43;;;3.20;;
5559;SDS011;2803;47.916;8.074;2022-08-06T03:26:45;5.90;;;3.53;;
5559;SDS011;2803;47.916;8.074;2022-08-06T03:29:12;8.00;;;3.57;;
5559;SDS011;2803;47.916;8.074;2022-08-06T03:31:39;8.17;;;3.53;;
5559;SDS011;2803;47.916;8.074;2022-08-06T03:34:07;8.20;;;3.53;;
5559;SDS011;2803;47.916;8.074;2022-08-06T03:36:34;7.90;;;3.73;;
5559;SDS011;2803;47.916;8.074;2022-08-06T03:39:03;7.83;;;4.30;;
5559;SDS011;2803;47.916;8.074;2022-08-06T03:41:34;3.63;;;3.10;;
5559;SDS011;2803;47.916;8.074;2022-08-06T03:44:03;8.30;;;3.45;;
5559;SDS011;2803;47.916;8.074;2022-08-06T03:46:30;5.20;;;3.20;;
5559;SDS011;2803;47.916;8.074;2022-08-06T03:49:02;4.97;;;2.90;;
5559;SDS011;2803;47.916;8.074;2022-08-06T03:51:31;6.30;;;3.40;;
5559;SDS011;2803;47.916;8.074;2022-08-06T03:54:01;6.10;;;3.20;;
5559;SDS011;2803;47.916;8.074;2022-08-06T03:56:30;6.33;;;3.33;;
5559;SDS011;2803;47.916;8.074;2022-08-06T03:59:02;3.47;;;2.73;;
5559;SDS011;2803;47.916;8.074;2022-08-06T04:01:31;4.93;;;3.80;;
5559;SDS011;2803;47.916;8.074;2022-08-06T04:04:01;5.40;;;3.70;;
5559;SDS011;2803;47.916;8.074;2022-08-06T04:06:29;8.83;;;3.53;;
5559;SDS011;2803;47.916;8.074;2022-08-06T04:08:56;7.30;;;3.00;;
5559;SDS011;2803;47.916;8.074;2022-08-06T04:11:26;4.93;;;2.93;;
5559;SDS011;2803;47.916;8.074;2022-08-06T04:13:53;7.47;;;3.37;;
5559;SDS011;2803;47.916;8.074;2022-08-06T04:16:20;5.57;;;3.27;;
5559;SDS011;2803;47.916;8.074;2022-08-06T04:18:47;2.90;;;2.47;;
5559;SDS011;2803;47.916;8.074;2022-08-06T04:21:21;5.70;;;2.63;;
5559;SDS011;2803;47.916;8.074;2022-08-06T04:23:49;7.23;;;3.27;;
5559;SDS011;2803;47.916;8.074;2022-08-06T04:26:18;2.77;;;2.53;;
5559;SDS011;2803;47.916;8.074;2022-08-06T04:28:50;5.37;;;3.40;;
5559;SDS011;2803;47.916;8.074;2022-08-06T04:31:22;5.20;;;2.70;;
5559;SDS011;2803;47.916;8.074;2022-08-06T04:33:51;4.20;;;2.80;;
5559;SDS011;2803;47.916;8.074;2022-08-06T04:36:20;6.27;;;2.57;;
5559;SDS011;2803;47.916;8.074;2022-08-06T04:38:47;5.07;;;2.70;;
5559;SDS011;2803;47.916;8.074;2022-08-06T04:41:14;6.70;;;2.40;;
5559;SDS011;2803;47.916;8.074;2022-08-06T04:43:41;7.43;;;3.37;;
5559;SDS011;2803;47.916;8.074;2022-08-06T04:46:09;10.10;;;2.57;;
5559;SDS011;2803;47.916;8.074;2022-08-06T04:48:36;5.60;;;2.63;;
5559;SDS011;2803;47.916;8.074;2022-08-06T04:51:03;7.60;;;2.63;;
5559;SDS011;2803;47.916;8.074;2022-08-06T04:53:35;6.23;;;2.70;;
5559;SDS011;2803;47.916;8.074;2022-08-06T04:56:02;6.67;;;3.10;;
5559;SDS011;2803;47.916;8.074;2022-08-06T04:58:29;5.13;;;2.80;;
5559;SDS011;2803;47.916;8.074;2022-08-06T05:00:56;3.27;;;2.30;;
5559;SDS011;2803;47.916;8.074;2022-08-06T05:03:24;4.70;;;2.40;;
5559;SDS011;2803;47.916;8.074;2022-08-06T05:05:52;7.40;;;3.40;;
5559;SDS011;2803;47.916;8.074;2022-08-06T05:08:24;5.17;;;2.40;;
5559;SDS011;2803;47.916;8.074;2022-08-06T05:10:54;3.00;;;2.10;;
5559;SDS011;2803;47.916;8.074;2022-08-06T05:13:35;5.40;;;2.57;;
5559;SDS011;2803;47.916;8.074;2022-08-06T05:16:06;8.30;;;1.90;;
5559;SDS011;2803;47.916;8.074;2022-08-06T05:18:37;6.27;;;2.80;;
5559;SDS011;2803;47.916;8.074;2022-08-06T05:21:08;5.13;;;2.37;;
5559;SDS011;2803;47.916;8.074;2022-08-06T05:23:39;3.17;;;2.37;;
5559;SDS011;2803;47.916;8.074;2022-08-06T05:26:10;4.13;;;2.53;;
5559;SDS011;2803;47.916;8.074;2022-08-06T05:28:38;3.20;;;2.20;;
5559;SDS011;2803;47.916;8.074;2022-08-06T05:31:06;6.27;;;2.37;;
5559;SDS011;2803;47.916;8.074;2022-08-06T05:33:33;5.33;;;2.53;;
5559;SDS011;2803;47.916;8.074;2022-08-06T05:36:03;6.67;;;2.73;;
5559;SDS011;2803;47.916;8.074;2022-08-06T05:38:31;7.10;;;2.90;;
5559;SDS011;2803;47.916;8.074;2022-08-06T05:40:59;2.67;;;2.37;;
5559;SDS011;2803;47.916;8.074;2022-08-06T05:43:26;9.43;;;3.33;;
5559;SDS011;2803;47.916;8.074;2022-08-06T05:45:54;4.63;;;2.27;;
5559;SDS011;2803;47.916;8.074;2022-08-06T05:48:25;3.27;;;2.10;;
5559;SDS011;2803;47.916;8.074;2022-08-06T05:50:57;3.50;;;2.63;;
5559;SDS011;2803;47.916;8.074;2022-08-06T05:53:30;3.37;;;2.23;;
5559;SDS011;2803;47.916;8.074;2022-08-06T05:55:59;5.87;;;2.20;;
5559;SDS011;2803;47.916;8.074;2022-08-06T05:58:33;5.13;;;2.23;;
5559;SDS011;2803;47.916;8.074;2022-08-06T06:01:04;5.53;;;2.20;;
5559;SDS011;2803;47.916;8.074;2022-08-06T06:03:32;9.60;;;2.27;;
5559;SDS011;2803;47.916;8.074;2022-08-06T06:06:01;4.20;;;2.00;;
5559;SDS011;2803;47.916;8.074;2022-08-06T06:08:29;5.73;;;2.40;;
5559;SDS011;2803;47.916;8.074;2022-08-06T06:10:56;9.07;;;2.10;;
5559;SDS011;2803;47.916;8.074;2022-08-06T06:13:24;4.57;;;1.90;;
5559;SDS011;2803;47.916;8.074;2022-08-06T06:15:53;5.33;;;2.17;;
5559;SDS011;2803;47.916;8.074;2022-08-06T06:18:27;4.30;;;1.87;;
5559;SDS011;2803;47.916;8.074;2022-08-06T06:21:04;11.00;;;4.57;;
5559;SDS011;2803;47.916;8.074;2022-08-06T06:23:40;3.03;;;2.43;;
5559;SDS011;2803;47.916;8.074;2022-08-06T06:26:13;4.83;;;2.63;;
5559;SDS011;2803;47.916;8.074;2022-08-06T06:28:55;7.13;;;3.03;;
5559;SDS011;2803;47.916;8.074;2022-08-06T06:31:28;4.63;;;2.53;;
5559;SDS011;2803;47.916;8.074;2022-08-06T06:34:03;3.53;;;3.23;;
5559;SDS011;2803;47.916;8.074;2022-08-06T06:36:36;5.40;;;2.03;;
5559;SDS011;2803;47.916;8.074;2022-08-06T06:39:10;2.90;;;2.37;;
5559;SDS011;2803;47.916;8.074;2022-08-06T06:41:45;5.40;;;2.30;;
5559;SDS011;2803;47.916;8.074;2022-08-06T06:44:17;4.70;;;2.10;;
5559;SDS011;2803;47.916;8.074;2022-08-06T06:46:49;7.13;;;2.20;;
5559;SDS011;2803;47.916;8.074;2022-08-06T06:49:22;4.77;;;2.20;;
5559;SDS011;2803;47.916;8.074;2022-08-06T06:51:54;5.00;;;2.40;;
5559;SDS011;2803;47.916;8.074;2022-08-06T06:54:26;5.80;;;2.80;;
5559;SDS011;2803;47.916;8.074;2022-08-06T06:56:57;5.17;;;2.40;;
5559;SDS011;2803;47.916;8.074;2022-08-06T06:59:29;10.77;;;3.20;;
5559;SDS011;2803;47.916;8.074;2022-08-06T07:01:59;3.53;;;2.27;;
5559;SDS011;2803;47.916;8.074;2022-08-06T07:04:27;3.70;;;2.57;;
5559;SDS011;2803;47.916;8.074;2022-08-06T07:06:56;3.83;;;2.70;;
5559;SDS011;2803;47.916;8.074;2022-08-06T07:09:26;2.43;;;1.80;;
5559;SDS011;2803;47.916;8.074;2022-08-06T07:11:56;2.40;;;2.20;;
5559;SDS011;2803;47.916;8.074;2022-08-06T07:14:24;5.77;;;2.27;;
5559;SDS011;2803;47.916;8.074;2022-08-06T07:16:52;4.87;;;2.30;;
5559;SDS011;2803;47.916;8.074;2022-08-06T07:19:21;4.33;;;2.53;;
5559;SDS011;2803;47.916;8.074;2022-08-06T07:21:49;5.07;;;2.30;;
5559;SDS011;2803;47.916;8.074;2022-08-06T07:24:17;7.83;;;2.50;;
5559;SDS011;2803;47.916;8.074;2022-08-06T07:26:48;6.13;;;2.93;;
5559;SDS011;2803;47.916;8.074;2022-08-06T07:29:16;5.10;;;1.80;;
5559;SDS011;2803;47.916;8.074;2022-08-06T07:31:46;7.57;;;2.37;;
5559;SDS011;2803;47.916;8.074;2022-08-06T07:34:15;4.90;;;2.37;;
5559;SDS011;2803;47.916;8.074;2022-08-06T07:36:44;4.60;;;2.80;;
5559;SDS011;2803;47.916;8.074;2022-08-06T07:39:15;4.83;;;2.30;;
5559;SDS011;2803;47.916;8.074;2022-08-06T07:41:49;4.93;;;2.80;;
5559;SDS011;2803;47.916;8.074;2022-08-06T07:44:17;2.50;;;2.30;;
5559;SDS011;2803;47.916;8.074;2022-08-06T07:46:46;3.07;;;2.07;;
5559;SDS011;2803;47.916;8.074;2022-08-06T07:49:16;3.63;;;2.00;;
5559;SDS011;2803;47.916;8.074;2022-08-06T07:51:45;6.43;;;2.80;;
5559;SDS011;2803;47.916;8.074;2022-08-06T07:54:15;5.90;;;2.27;;
5559;SDS011;2803;47.916;8.074;2022-08-06T07:56:43;5.70;;;2.43;;
5559;SDS011;2803;47.916;8.074;2022-08-06T07:59:12;13.37;;;2.80;;
5559;SDS011;2803;47.916;8.074;2022-08-06T08:01:39;4.73;;;2.83;;
5559;SDS011;2803;47.916;8.074;2022-08-06T08:04:06;3.17;;;2.77;;
5559;SDS011;2803;47.916;8.074;2022-08-06T08:06:48;3.83;;;2.50;;
5559;SDS011;2803;47.916;8.074;2022-08-06T08:09:17;3.37;;;2.33;;
5559;SDS011;2803;47.916;8.074;2022-08-06T08:11:45;3.20;;;2.03;;
5559;SDS011;2803;47.916;8.074;2022-08-06T08:14:15;5.67;;;2.00;;
5559;SDS011;2803;47.916;8.074;2022-08-06T08:16:44;6.43;;;2.90;;
5559;SDS011;2803;47.916;8.074;2022-08-06T08:19:19;3.40;;;1.90;;
5559;SDS011;2803;47.916;8.074;2022-08-06T08:21:49;8.67;;;2.40;;
5559;SDS011;2803;47.916;8.074;2022-08-06T08:24:15;12.57;;;2.87;;
5559;SDS011;2803;47.916;8.074;2022-08-06T08:26:42;2.83;;;2.07;;
5559;SDS011;2803;47.916;8.074;2022-08-06T08:29:09;5.10;;;2.73;;
5559;SDS011;2803;47.916;8.074;2022-08-06T08:31:37;4.30;;;2.13;;
5559;SDS011;2803;47.916;8.074;2022-08-06T08:34:04;3.30;;;2.10;;
5559;SDS011;2803;47.916;8.074;2022-08-06T08:36:32;2.50;;;1.87;;
5559;SDS011;2803;47.916;8.074;2022-08-06T08:38:59;3.50;;;1.87;;
5559;SDS011;2803;47.916;8.074;2022-08-06T08:41:28;3.93;;;2.13;;
5559;SDS011;2803;47.916;8.074;2022-08-06T08:44:00;4.17;;;2.00;;
5559;SDS011;2803;47.916;8.074;2022-08-06T08:46:31;1.83;;;1.47;;
5559;SDS011;2803;47.916;8.074;2022-08-06T08:49:02;4.27;;;2.50;;
5559;SDS011;2803;47.916;8.074;2022-08-06T08:51:30;4.73;;;2.40;;
5559;SDS011;2803;47.916;8.074;2022-08-06T08:53:59;5.10;;;2.23;;
5559;SDS011;2803;47.916;8.074;2022-08-06T08:56:26;12.93;;;2.50;;
5559;SDS011;2803;47.916;8.074;2022-08-06T08:58:53;5.67;;;2.40;;
5559;SDS011;2803;47.916;8.074;2022-08-06T09:01:20;3.23;;;2.10;;
5559;SDS011;2803;47.916;8.074;2022-08-06T09:03:47;2.90;;;2.30;;
5559;SDS011;2803;47.916;8.074;2022-08-06T09:06:15;2.43;;;2.20;;
5559;SDS011;2803;47.916;8.074;2022-08-06T09:08:43;4.00;;;2.30;;
5559;SDS011;2803;47.916;8.074;2022-08-06T09:11:11;4.80;;;2.50;;
5559;SDS011;2803;47.916;8.074;2022-08-06T09:13:38;6.90;;;2.40;;
5559;SDS011;2803;47.916;8.074;2022-08-06T09:16:05;9.23;;;2.10;;
5559;SDS011;2803;47.916;8.074;2022-08-06T09:18:31;4.47;;;1.97;;
5559;SDS011;2803;47.916;8.074;2022-08-06T09:21:00;7.50;;;2.90;;
5559;SDS011;2803;47.916;8.074;2022-08-06T09:23:29;4.63;;;2.40;;
5559;SDS011;2803;47.916;8.074;2022-08-06T09:25:55;3.93;;;2.30;;
5559;SDS011;2803;47.916;8.074;2022-08-06T09:28:26;3.80;;;1.93;;
5559;SDS011;2803;47.916;8.074;2022-08-06T09:30:57;5.57;;;2.53;;
5559;SDS011;2803;47.916;8.074;2022-08-06T09:33:24;2.97;;;1.83;;
5559;SDS011;2803;47.916;8.074;2022-08-06T09:35:56;4.00;;;2.10;;
5559;SDS011;2803;47.916;8.074;2022-08-06T09:38:24;9.17;;;2.27;;
5559;SDS011;2803;47.916;8.074;2022-08-06T09:43:34;5.43;;;1.80;;
5559;SDS011;2803;47.916;8.074;2022-08-06T09:46:02;5.33;;;2.23;;
5559;SDS011;2803;47.916;8.074;2022-08-06T09:48:29;3.83;;;2.20;;
5559;SDS011;2803;47.916;8.074;2022-08-06T09:50:56;7.77;;;2.10;;
5559;SDS011;2803;47.916;8.074;2022-08-06T09:53:23;4.57;;;2.13;;
5559;SDS011;2803;47.916;8.074;2022-08-06T09:55:51;2.33;;;2.13;;
5559;SDS011;2803;47.916;8.074;2022-08-06T09:58:27;6.90;;;2.37;;
5559;SDS011;2803;47.916;8.074;2022-08-06T10:00:56;8.00;;;2.17;;
5559;SDS011;2803;47.916;8.074;2022-08-06T10:03:23;4.07;;;2.20;;
5559;SDS011;2803;47.916;8.074;2022-08-06T10:06:02;5.43;;;2.67;;
5559;SDS011;2803;47.916;8.074;2022-08-06T10:08:29;6.47;;;2.20;;
5559;SDS011;2803;47.916;8.074;2022-08-06T10:10:56;2.70;;;1.80;;
5559;SDS011;2803;47.916;8.074;2022-08-06T10:13:29;4.10;;;2.67;;
5559;SDS011;2803;47.916;8.074;2022-08-06T10:15:57;3.90;;;2.20;;
5559;SDS011;2803;47.916;8.074;2022-08-06T10:18:29;3.50;;;2.60;;
5559;SDS011;2803;47.916;8.074;2022-08-06T10:20:59;10.00;;;3.20;;
5559;SDS011;2803;47.916;8.074;2022-08-06T10:23:27;5.63;;;2.17;;
5559;SDS011;2803;47.916;8.074;2022-08-06T10:25:56;6.37;;;2.80;;
5559;SDS011;2803;47.916;8.074;2022-08-06T10:28:23;5.63;;;2.50;;
5559;SDS011;2803;47.916;8.074;2022-08-06T10:30:53;5.83;;;2.17;;
5559;SDS011;2803;47.916;8.074;2022-08-06T10:33:20;3.30;;;2.30;;
5559;SDS011;2803;47.916;8.074;2022-08-06T10:35:50;4.37;;;2.03;;
5559;SDS011;2803;47.916;8.074;2022-08-06T10:38:20;3.70;;;2.50;;
5559;SDS011;2803;47.916;8.074;2022-08-06T10:40:51;5.93;;;2.50;;
5559;SDS011;2803;47.916;8.074;2022-08-06T10:43:19;6.67;;;2.70;;
5559;SDS011;2803;47.916;8.074;2022-08-06T10:45:46;7.20;;;2.70;;
5559;SDS011;2803;47.916;8.074;2022-08-06T10:48:16;4.90;;;2.60;;
5559;SDS011;2803;47.916;8.074;2022-08-06T10:50:44;4.97;;;2.20;;
5559;SDS011;2803;47.916;8.074;2022-08-06T10:53:11;3.60;;;2.30;;
5559;SDS011;2803;47.916;8.074;2022-08-06T10:55:41;3.23;;;2.07;;
5559;SDS011;2803;47.916;8.074;2022-08-06T10:58:08;3.90;;;2.47;;
5559;SDS011;2803;47.916;8.074;2022-08-06T11:00:36;4.27;;;2.20;;
5559;SDS011;2803;47.916;8.074;2022-08-06T11:03:08;4.00;;;2.10;;
5559;SDS011;2803;47.916;8.074;2022-08-06T11:05:42;4.63;;;2.43;;
5559;SDS011;2803;47.916;8.074;2022-08-06T11:08:16;2.60;;;2.10;;
5559;SDS011;2803;47.916;8.074;2022-08-06T11:11:03;3.93;;;2.43;;
5559;SDS011;2803;47.916;8.074;2022-08-06T11:13:46;4.10;;;2.40;;
5559;SDS011;2803;47.916;8.074;2022-08-06T11:16:25;3.60;;;2.20;;
5559;SDS011;2803;47.916;8.074;2022-08-06T11:19:00;14.03;;;2.80;;
5559;SDS011;2803;47.916;8.074;2022-08-06T11:21:38;12.63;;;3.13;;
5559;SDS011;2803;47.916;8.074;2022-08-06T11:24:06;9.83;;;2.43;;
5559;SDS011;2803;47.916;8.074;2022-08-06T11:26:34;4.10;;;2.23;;
5559;SDS011;2803;47.916;8.074;2022-08-06T11:29:02;6.80;;;2.60;;
5559;SDS011;2803;47.916;8.074;2022-08-06T11:31:31;6.13;;;2.40;;
5559;SDS011;2803;47.916;8.074;2022-08-06T11:34:00;7.50;;;2.63;;
5559;SDS011;2803;47.916;8.074;2022-08-06T11:36:28;4.90;;;2.90;;
5559;SDS011;2803;47.916;8.074;2022-08-06T11:39:18;6.57;;;2.57;;
5559;SDS011;2803;47.916;8.074;2022-08-06T11:41:47;11.83;;;2.67;;
5559;SDS011;2803;47.916;8.074;2022-08-06T11:44:16;5.77;;;2.40;;
5559;SDS011;2803;47.916;8.074;2022-08-06T11:46:44;10.77;;;2.63;;
5559;SDS011;2803;47.916;8.074;2022-08-06T11:49:15;3.30;;;2.10;;
5559;SDS011;2803;47.916;8.074;2022-08-06T11:51:52;3.93;;;2.00;;
5559;SDS011;2803;47.916;8.074;2022-08-06T11:54:20;7.43;;;1.80;;
5559;SDS011;2803;47.916;8.074;2022-08-06T11:59:45;6.60;;;2.57;;
5559;SDS011;2803;47.916;8.074;2022-08-06T12:13:42;4.30;;;2.20;;
5559;SDS011;2803;47.916;8.074;2022-08-06T12:18:51;5.83;;;2.60;;
5559;SDS011;2803;47.916;8.074;2022-08-06T12:21:18;4.87;;;2.23;;
5559;SDS011;2803;47.916;8.074;2022-08-06T12:23:49;4.43;;;2.20;;
5559;SDS011;2803;47.916;8.074;2022-08-06T12:26:16;6.80;;;2.47;;
5559;SDS011;2803;47.916;8.074;2022-08-06T12:28:44;2.53;;;2.30;;
5559;SDS011;2803;47.916;8.074;2022-08-06T12:31:11;11.53;;;2.90;;
5559;SDS011;2803;47.916;8.074;2022-08-06T12:33:40;9.87;;;2.80;;
5559;SDS011;2803;47.916;8.074;2022-08-06T12:36:07;10.23;;;2.60;;
5559;SDS011;2803;47.916;8.074;2022-08-06T12:38:34;4.40;;;2.80;;
5559;SDS011;2803;47.916;8.074;2022-08-06T12:41:03;4.93;;;2.37;;
5559;SDS011;2803;47.916;8.074;2022-08-06T12:43:31;3.13;;;2.70;;
5559;SDS011;2803;47.916;8.074;2022-08-06T12:46:00;5.43;;;2.30;;
5559;SDS011;2803;47.916;8.074;2022-08-06T12:48:28;7.80;;;2.50;;
5559;SDS011;2803;47.916;8.074;2022-08-06T12:51:01;4.83;;;2.73;;
5559;SDS011;2803;47.916;8.074;2022-08-06T12:53:29;4.47;;;2.73;;
5559;SDS011;2803;47.916;8.074;2022-08-06T12:55:56;3.77;;;2.37;;
5559;SDS011;2803;47.916;8.074;2022-08-06T12:58:25;3.87;;;2.30;;
5559;SDS011;2803;47.916;8.074;2022-08-06T13:00:57;3.93;;;2.90;;
5559;SDS011;2803;47.916;8.074;2022-08-06T13:03:25;4.70;;;2.50;;
5559;SDS011;2803;47.916;8.074;2022-08-06T13:05:55;4.37;;;2.50;;
5559;SDS011;2803;47.916;8.074;2022-08-06T13:08:24;5.80;;;2.10;;
5559;SDS011;2803;47.916;8.074;2022-08-06T13:10:52;5.70;;;2.70;;
5559;SDS011;2803;47.916;8.074;2022-08-06T13:13:20;6.70;;;2.60;;
5559;SDS011;2803;47.916;8.074;2022-08-06T13:15:59;7.27;;;3.10;;
5559;SDS011;2803;47.916;8.074;2022-08-06T13:18:27;3.77;;;2.40;;
5559;SDS011;2803;47.916;8.074;2022-08-06T13:20:54;2.87;;;2.30;;
5559;SDS011;2803;47.916;8.074;2022-08-06T13:23:27;11.27;;;2.40;;
5559;SDS011;2803;47.916;8.074;2022-08-06T13:25:54;2.90;;;2.20;;
5559;SDS011;2803;47.916;8.074;2022-08-06T13:28:22;8.00;;;2.87;;
5559;SDS011;2803;47.916;8.074;2022-08-06T13:30:50;5.40;;;2.53;;
5559;SDS011;2803;47.916;8.074;2022-08-06T13:33:18;2.50;;;2.03;;
5559;SDS011;2803;47.916;8.074;2022-08-06T13:35:47;3.30;;;2.60;;
5559;SDS011;2803;47.916;8.074;2022-08-06T13:38:25;7.80;;;2.70;;
5559;SDS011;2803;47.916;8.074;2022-08-06T13:40:53;7.63;;;2.73;;
5559;SDS011;2803;47.916;8.074;2022-08-06T13:43:20;3.80;;;2.17;;
5559;SDS011;2803;47.916;8.074;2022-08-06T13:46:03;6.87;;;2.37;;
5559;SDS011;2803;47.916;8.074;2022-08-06T13:48:33;3.70;;;2.00;;
5559;SDS011;2803;47.916;8.074;2022-08-06T13:50:59;5.53;;;3.17;;
5559;SDS011;2803;47.916;8.074;2022-08-06T13:53:26;4.90;;;2.47;;
5559;SDS011;2803;47.916;8.074;2022-08-06T13:55:53;8.53;;;2.80;;
5559;SDS011;2803;47.916;8.074;2022-08-06T13:58:19;4.30;;;2.67;;
5559;SDS011;2803;47.916;8.074;2022-08-06T14:00:46;3.30;;;2.50;;
5559;SDS011;2803;47.916;8.074;2022-08-06T14:03:13;7.90;;;3.10;;
5559;SDS011;2803;47.916;8.074;2022-08-06T14:05:41;4.53;;;2.50;;
5559;SDS011;2803;47.916;8.074;2022-08-06T14:08:08;6.30;;;2.63;;
5559;SDS011;2803;47.916;8.074;2022-08-06T14:10:34;9.40;;;2.60;;
5559;SDS011;2803;47.916;8.074;2022-08-06T14:13:01;4.10;;;2.70;;
5559;SDS011;2803;47.916;8.074;2022-08-06T14:15:42;5.73;;;2.37;;
5559;SDS011;2803;47.916;8.074;2022-08-06T14:18:09;6.43;;;2.30;;
5559;SDS011;2803;47.916;8.074;2022-08-06T14:20:36;10.63;;;3.00;;
5559;SDS011;2803;47.916;8.074;2022-08-06T14:23:04;5.00;;;2.70;;
5559;SDS011;2803;47.916;8.074;2022-08-06T14:25:31;3.80;;;2.27;;
5559;SDS011;2803;47.916;8.074;2022-08-06T14:27:58;6.10;;;2.00;;
5559;SDS011;2803;47.916;8.074;2022-08-06T14:30:25;7.27;;;2.40;;
5559;SDS011;2803;47.916;8.074;2022-08-06T14:32:52;10.27;;;3.03;;
5559;SDS011;2803;47.916;8.074;2022-08-06T14:35:19;7.67;;;2.70;;
5559;SDS011;2803;47.916;8.074;2022-08-06T14:37:46;9.03;;;2.63;;
5559;SDS011;2803;47.916;8.074;2022-08-06T14:40:14;4.80;;;3.03;;
5559;SDS011;2803;47.916;8.074;2022-08-06T14:42:41;6.60;;;2.60;;
5559;SDS011;2803;47.916;8.074;2022-08-06T14:45:22;4.67;;;2.43;;
5559;SDS011;2803;47.916;8.074;2022-08-06T14:47:49;6.47;;;2.73;;
5559;SDS011;2803;47.916;8.074;2022-08-06T14:50:16;16.67;;;3.00;;
5559;SDS011;2803;47.916;8.074;2022-08-06T14:52:44;4.23;;;2.70;;
5559;SDS011;2803;47.916;8.074;2022-08-06T14:55:11;6.30;;;3.00;;
5559;SDS011;2803;47.916;8.074;2022-08-06T14:57:40;5.50;;;2.40;;
5559;SDS011;2803;47.916;8.074;2022-08-06T15:00:07;9.53;;;3.13;;
5559;SDS011;2803;47.916;8.074;2022-08-06T15:02:35;4.10;;;2.67;;
5559;SDS011;2803;47.916;8.074;2022-08-06T15:05:02;4.77;;;3.30;;
5559;SDS011;2803;47.916;8.074;2022-08-06T15:07:29;6.57;;;3.07;;
5559;SDS011;2803;47.916;8.074;2022-08-06T15:09:56;3.00;;;2.80;;
5559;SDS011;2803;47.916;8.074;2022-08-06T15:12:23;4.43;;;2.40;;
5559;SDS011;2803;47.916;8.074;2022-08-06T15:14:51;6.30;;;3.20;;
5559;SDS011;2803;47.916;8.074;2022-08-06T15:17:17;4.67;;;3.30;;
5559;SDS011;2803;47.916;8.074;2022-08-06T15:19:44;7.63;;;2.97;;
5559;SDS011;2803;47.916;8.074;2022-08-06T15:22:10;5.17;;;3.40;;
5559;SDS011;2803;47.916;8.074;2022-08-06T15:24:37;8.23;;;3.53;;
5559;SDS011;2803;47.916;8.074;2022-08-06T15:27:04;4.03;;;2.83;;
5559;SDS011;2803;47.916;8.074;2022-08-06T15:29:31;8.30;;;3.63;;
5559;SDS011;2803;47.916;8.074;2022-08-06T15:32:00;5.00;;;3.50;;
5559;SDS011;2803;47.916;8.074;2022-08-06T15:34:26;7.33;;;3.30;;
5559;SDS011;2803;47.916;8.074;2022-08-06T15:36:53;4.10;;;3.00;;
5559;SDS011;2803;47.916;8.074;2022-08-06T15:39:20;4.97;;;3.27;;
5559;SDS011;2803;47.916;8.074;2022-08-06T15:41:46;6.67;;;3.30;;
5559;SDS011;2803;47.916;8.074;2022-08-06T15:44:13;5.47;;;3.13;;
5559;SDS011;2803;47.916;8.074;2022-08-06T15:46:40;9.00;;;3.30;;
5559;SDS011;2803;47.916;8.074;2022-08-06T15:49:08;5.33;;;3.37;;